createdAt,value
2022-11-16T00:03:05.156Z,10.80
2022-11-16T00:08:08.180Z,10.81
2022-11-16T00:13:11.194Z,10.87
2022-11-16T00:18:14.183Z,10.89
2022-11-16T00:23:17.950Z,10.92
2022-11-16T00:28:21.026Z,10.90
2022-11-16T00:33:24.018Z,10.87
2022-11-16T00:38:27.278Z,10.85
2022-11-16T00:43:30.759Z,10.83
2022-11-16T00:48:34.163Z,10.86
2022-11-16T00:53:37.492Z,10.91
2022-11-16T00:58:40.475Z,10.89
2022-11-16T01:03:46.160Z,10.84
2022-11-16T01:08:49.291Z,10.84
2022-11-16T01:13:52.755Z,10.82
2022-11-16T01:18:56.122Z,10.80
2022-11-16T01:23:59.120Z,10.83
2022-11-16T01:29:02.370Z,10.85
2022-11-16T01:34:09.342Z,10.87
2022-11-16T01:39:13.621Z,10.86
2022-11-16T01:44:32.547Z,10.85
2022-11-16T01:49:51.710Z,10.84
2022-11-16T01:54:57.695Z,10.85
2022-11-16T02:00:06.962Z,10.87
2022-11-16T02:05:33.760Z,10.90
2022-11-16T02:11:18.302Z,10.91
2022-11-16T02:16:43.388Z,10.94
2022-11-16T02:21:58.011Z,10.91
2022-11-16T02:27:14.443Z,10.87
2022-11-16T02:32:39.925Z,10.86
2022-11-16T02:38:02.003Z,10.90
2022-11-16T02:43:11.152Z,10.94
2022-11-16T02:48:22.728Z,10.93
2022-11-16T02:53:26.118Z,10.94
2022-11-16T02:58:30.131Z,10.90
2022-11-16T03:03:50.031Z,10.85
2022-11-16T03:09:02.303Z,10.80
2022-11-16T03:14:12.101Z,10.78
2022-11-16T03:19:21.868Z,10.78
2022-11-16T03:24:25.636Z,10.76
2022-11-16T03:29:54.589Z,10.73
2022-11-16T03:35:05.313Z,10.66
2022-11-16T03:40:11.660Z,10.61
2022-11-16T03:45:17.124Z,10.63
2022-11-16T03:50:20.248Z,10.65
2022-11-16T03:55:23.413Z,10.66
2022-11-16T04:00:26.739Z,10.66
2022-11-16T04:05:48.075Z,10.67
2022-11-16T04:11:10.078Z,10.69
2022-11-16T04:16:31.634Z,10.70
2022-11-16T04:21:58.221Z,10.72
2022-11-16T04:27:28.189Z,10.79
2022-11-16T04:32:49.680Z,10.82
2022-11-16T04:37:53.616Z,10.79
2022-11-16T04:43:06.528Z,10.73
2022-11-16T04:48:13.223Z,10.69
2022-11-16T04:53:16.856Z,10.65
2022-11-16T04:58:22.835Z,10.63
2022-11-16T05:03:26.327Z,10.66
2022-11-16T05:08:29.324Z,10.70
2022-11-16T05:13:32.562Z,10.75
2022-11-16T05:18:37.250Z,10.73
2022-11-16T05:24:00.095Z,10.74
2022-11-16T05:29:05.360Z,10.75
2022-11-16T05:34:09.603Z,10.78
2022-11-16T05:39:13.021Z,10.77
2022-11-16T05:44:17.397Z,10.76
2022-11-16T05:49:21.345Z,10.78
2022-11-16T05:54:26.300Z,10.76
2022-11-16T05:59:30.217Z,10.68
2022-11-16T06:04:34.734Z,10.62
2022-11-16T06:09:37.786Z,10.58
2022-11-16T06:14:49.275Z,10.61
2022-11-16T06:19:52.591Z,10.63
2022-11-16T06:24:55.663Z,10.62
2022-11-16T06:29:58.904Z,10.58
2022-11-16T06:35:02.490Z,10.53
2022-11-16T06:40:06.673Z,10.47
2022-11-16T06:45:12.233Z,10.46
2022-11-16T06:50:21.331Z,10.48
2022-11-16T06:55:24.889Z,10.52
2022-11-16T07:00:28.467Z,10.52
2022-11-16T07:05:33.320Z,10.54
2022-11-16T07:10:38.268Z,10.56
2022-11-16T07:15:41.984Z,10.54
2022-11-16T07:20:45.586Z,10.57
2022-11-16T07:25:49.069Z,10.56
2022-11-16T07:31:06.217Z,10.53
2022-11-16T07:36:14.592Z,10.47
2022-11-16T07:41:19.733Z,10.46
2022-11-16T07:46:45.963Z,10.49
2022-11-16T07:51:50.734Z,10.49
2022-11-16T07:57:09.901Z,10.50
2022-11-16T08:02:15.372Z,10.46
2022-11-16T08:07:20.157Z,10.39
2022-11-16T08:12:27.634Z,10.27
2022-11-16T08:17:30.882Z,10.18
2022-11-16T08:22:34.234Z,10.06
2022-11-16T08:27:38.145Z,9.95
2022-11-16T08:32:43.529Z,9.88
2022-11-16T08:43:25.622Z,9.88
2022-11-16T08:48:29.405Z,9.82
2022-11-16T08:53:33.730Z,9.77
2022-11-16T08:58:36.873Z,9.74
2022-11-16T09:03:40.881Z,9.68
2022-11-16T09:08:46.076Z,9.59
2022-11-16T09:13:51.205Z,9.55
2022-11-16T09:18:54.949Z,9.57
2022-11-16T09:23:59.031Z,9.61
2022-11-16T09:29:04.458Z,9.61
2022-11-16T09:34:08.278Z,9.61
2022-11-16T09:39:30.029Z,9.59
2022-11-16T09:44:45.349Z,9.52
2022-11-16T09:50:02.897Z,9.46
2022-11-16T09:55:20.823Z,9.47
2022-11-16T10:00:24.110Z,9.52
2022-11-16T10:05:39.155Z,9.55
2022-11-16T10:10:52.902Z,9.56
2022-11-16T10:16:14.847Z,9.56
2022-11-16T10:21:38.662Z,9.57
2022-11-16T10:26:41.900Z,9.62
2022-11-16T10:31:58.431Z,9.67
2022-11-16T10:37:04.040Z,9.72
2022-11-16T10:42:13.559Z,9.74
2022-11-16T10:47:22.495Z,9.78
2022-11-16T10:52:25.956Z,9.82
2022-11-16T10:58:02.684Z,9.77
2022-11-16T11:03:06.221Z,9.71
2022-11-16T11:08:12.754Z,9.69
2022-11-16T11:13:26.632Z,9.61
2022-11-16T11:18:30.280Z,9.56
2022-11-16T11:23:49.285Z,9.57
2022-11-16T11:28:52.309Z,9.59
2022-11-16T11:34:00.434Z,9.57
2022-11-16T11:39:25.618Z,9.55
2022-11-16T11:44:37.062Z,9.49
2022-11-16T11:49:50.036Z,9.46
2022-11-16T11:54:55.857Z,9.43
2022-11-16T11:59:58.785Z,9.43
2022-11-16T12:05:39.114Z,9.47
2022-11-16T12:10:46.583Z,9.55
2022-11-16T12:15:57.883Z,9.57
2022-11-16T12:21:48.215Z,9.57
2022-11-16T12:27:16.072Z,9.53
2022-11-16T12:32:31.351Z,9.48
2022-11-16T12:37:40.676Z,9.48
2022-11-16T12:43:05.280Z,9.46
2022-11-16T12:48:36.939Z,9.60
2022-11-16T12:54:13.550Z,9.96
2022-11-16T12:59:22.553Z,9.83
2022-11-16T13:04:32.699Z,9.73
2022-11-16T13:09:39.371Z,9.62
2022-11-16T13:14:46.446Z,9.53
2022-11-16T13:20:28.244Z,9.44
2022-11-16T13:25:46.427Z,9.42
2022-11-16T13:30:49.374Z,9.45
2022-11-16T13:35:52.451Z,9.46
2022-11-16T13:41:32.002Z,9.46
2022-11-16T13:46:56.927Z,9.41
2022-11-16T13:52:21.943Z,9.37
2022-11-16T13:57:29.762Z,9.33
2022-11-16T14:02:41.620Z,9.27
2022-11-16T14:07:49.904Z,9.18
2022-11-16T14:12:56.305Z,9.16
2022-11-16T14:18:08.763Z,9.19
2022-11-16T14:23:34.971Z,9.29
2022-11-16T14:28:51.189Z,9.40
2022-11-16T14:33:57.436Z,9.28
2022-11-16T14:39:24.093Z,9.16
2022-11-16T14:44:31.715Z,9.10
2022-11-16T14:49:37.692Z,9.05
2022-11-16T14:54:58.086Z,9.06
2022-11-16T15:00:18.874Z,9.11
2022-11-16T15:05:43.697Z,9.20
2022-11-16T15:10:52.196Z,9.20
2022-11-16T15:16:17.714Z,9.15
2022-11-16T15:21:22.787Z,9.10
2022-11-16T15:26:25.803Z,9.05
2022-11-16T15:31:28.801Z,9.04
2022-11-16T15:36:38.855Z,9.12
2022-11-16T15:41:43.090Z,9.23
2022-11-16T15:46:50.268Z,9.22
2022-11-16T15:51:53.249Z,9.21
2022-11-16T15:57:04.721Z,9.19
2022-11-16T16:02:18.413Z,9.11
2022-11-16T16:07:42.496Z,9.08
2022-11-16T16:12:53.747Z,8.99
2022-11-16T16:17:58.969Z,9.01
2022-11-16T16:23:07.645Z,9.05
2022-11-16T16:28:11.948Z,9.05
2022-11-16T16:33:19.890Z,9.01
2022-11-16T16:38:23.252Z,8.95
2022-11-16T16:43:27.354Z,8.91
2022-11-16T16:48:30.538Z,8.85
2022-11-16T16:53:33.864Z,8.75
2022-11-16T16:58:36.943Z,8.67
2022-11-16T17:03:40.247Z,8.67
2022-11-16T17:08:43.249Z,8.69
2022-11-16T17:13:46.243Z,8.67
2022-11-16T17:18:55.048Z,8.63
2022-11-16T17:23:58.306Z,8.56
2022-11-16T17:29:01.606Z,8.86
2022-11-16T17:34:07.287Z,9.01
2022-11-16T17:39:12.856Z,8.84
2022-11-16T17:44:21.641Z,8.64
2022-11-16T17:49:25.255Z,8.51
2022-11-16T17:54:28.397Z,8.44
2022-11-16T17:59:31.343Z,8.33
2022-11-16T18:04:34.338Z,8.21
2022-11-16T18:09:37.435Z,8.18
2022-11-16T18:14:42.388Z,8.14
2022-11-16T18:19:45.560Z,8.05
2022-11-16T18:24:50.808Z,7.99
2022-11-16T18:29:53.760Z,7.96
2022-11-16T18:34:56.703Z,7.96
2022-11-16T18:39:59.617Z,7.90
2022-11-16T18:45:02.582Z,7.78
2022-11-16T18:50:16.344Z,7.70
2022-11-16T18:55:22.150Z,7.64
2022-11-16T19:00:25.259Z,7.61
2022-11-16T19:05:32.409Z,7.55
2022-11-16T19:10:37.650Z,7.53
2022-11-16T19:15:42.337Z,7.49
2022-11-16T19:20:45.809Z,7.44
2022-11-16T19:26:01.615Z,7.33
2022-11-16T19:31:09.844Z,7.32
2022-11-16T19:36:19.748Z,7.26
2022-11-16T19:41:23.824Z,7.05
2022-11-16T19:46:29.371Z,6.88
2022-11-16T19:51:34.001Z,6.78
2022-11-16T19:56:37.078Z,6.75
2022-11-16T20:01:40.957Z,6.75
2022-11-16T20:06:45.760Z,6.80
2022-11-16T20:11:49.687Z,6.81
2022-11-16T20:16:53.625Z,6.71
2022-11-16T20:22:00.043Z,6.68
2022-11-16T20:27:03.553Z,6.58
2022-11-16T20:32:07.037Z,6.52
2022-11-16T20:37:11.011Z,6.50
2022-11-16T20:42:14.567Z,6.46
2022-11-16T20:47:18.884Z,6.46
2022-11-16T20:52:22.046Z,6.50
2022-11-16T20:57:25.106Z,6.53
2022-11-16T21:02:29.065Z,6.50
2022-11-16T21:07:33.258Z,6.43
2022-11-16T21:12:55.826Z,6.34
2022-11-16T21:17:59.338Z,6.26
2022-11-16T21:23:03.617Z,6.22
2022-11-16T21:28:07.480Z,6.20
2022-11-16T21:33:11.325Z,6.18
2022-11-16T21:38:14.934Z,6.21
2022-11-16T21:43:18.822Z,6.26
2022-11-16T21:48:22.286Z,6.25
2022-11-16T21:53:26.556Z,6.28
2022-11-16T21:58:30.174Z,6.28
2022-11-16T22:03:35.830Z,6.21
2022-11-16T22:08:41.259Z,6.17
2022-11-16T22:13:44.625Z,6.15
2022-11-16T22:18:47.658Z,6.12
2022-11-16T22:23:50.740Z,6.12
2022-11-16T22:28:53.894Z,6.16
2022-11-16T22:33:56.852Z,6.20
2022-11-16T22:39:00.798Z,6.22
2022-11-16T22:44:04.148Z,6.23
2022-11-16T22:49:07.111Z,6.18
2022-11-16T22:54:11.579Z,6.16
2022-11-16T22:59:14.646Z,6.12
2022-11-16T23:04:17.625Z,6.08
2022-11-16T23:09:20.879Z,6.05
2022-11-16T23:14:42.651Z,6.05
2022-11-16T23:20:04.510Z,6.09
2022-11-16T23:25:29.567Z,6.12
2022-11-16T23:30:33.743Z,6.14
2022-11-16T23:35:36.899Z,6.13
2022-11-16T23:40:40.150Z,6.10
2022-11-16T23:45:43.979Z,6.07
2022-11-16T23:50:47.125Z,6.02
2022-11-16T23:55:50.072Z,5.97
